Time;durP1;ratioP1;P1;durP2;ratioP2;P2;SDS_P1;SDS_P2;PMS_P1;PMS_P2;Temp;Humidity;BMP_temperature;BMP_pressure;BME280_temperature;BME280_humidity;BME280_pressure;Samples;Min_cycle;Max_cycle;Signal;HPM_P1;HPM_P2
2023/03/19 00:00:12;;;;;;;0.10;0.10;;;4.70;99.90;;;;;;5081192;28;20036;-76
2023/03/19 00:02:39;;;;;;;0.10;0.10;;;4.60;99.90;;;;;;5081177;28;20526;-76
2023/03/19 00:05:05;;;;;;;0.10;0.10;;;4.60;99.90;;;;;;5081481;28;20016;-75
2023/03/19 00:07:33;;;;;;;20.08;18.52;;;4.60;99.90;;;;;;5083853;28;20384;-76
2023/03/19 00:09:58;;;;;;;0.98;0.90;;;4.50;99.90;;;;;;5084291;28;20103;-76
2023/03/19 00:12:24;;;;;;;0.20;0.20;;;4.40;99.90;;;;;;5081248;28;20529;-76
2023/03/19 00:14:51;;;;;;;7.10;6.82;;;4.50;99.90;;;;;;5082589;28;20244;-76
2023/03/19 00:17:17;;;;;;;1.08;1.08;;;4.40;99.90;;;;;;5086749;28;20252;-76
2023/03/19 00:19:42;;;;;;;0.10;0.10;;;4.50;99.90;;;;;;5083458;28;20417;-76
2023/03/19 00:22:08;;;;;;;0.20;0.20;;;6.20;99.90;;;;;;5065848;28;20025;-76
2023/03/19 00:24:35;;;;;;;0.20;0.20;;;4.40;99.90;;;;;;5083272;28;20016;-76
2023/03/19 00:27:02;;;;;;;0.20;0.20;;;4.40;99.90;;;;;;5082854;28;20024;-76
2023/03/19 00:29:28;;;;;;;0.82;0.82;;;4.80;99.90;;;;;;5084873;28;20052;-77
2023/03/19 00:31:54;;;;;;;0.20;0.20;;;4.40;99.90;;;;;;5085619;28;20020;-76
2023/03/19 00:34:21;;;;;;;0.20;0.20;;;4.30;99.90;;;;;;5084426;28;20095;-76
2023/03/19 00:36:47;;;;;;;0.77;0.77;;;4.30;99.90;;;;;;5083864;28;20463;-76
2023/03/19 00:39:13;;;;;;;0.20;0.20;;;1.60;99.90;;;;;;5065399;28;20028;-74
2023/03/19 00:41:39;;;;;;;0.20;0.20;;;4.20;99.90;;;;;;5085750;28;20122;-74
2023/03/19 00:44:05;;;;;;;0.20;0.20;;;;;;;;;;5086784;28;20028;-76
2023/03/19 00:46:31;;;;;;;0.10;0.10;;;4.20;99.90;;;;;;5081506;28;20046;-76
2023/03/19 00:48:57;;;;;;;0.20;0.20;;;4.20;99.90;;;;;;5080164;28;20016;-76
2023/03/19 00:51:24;;;;;;;28.55;22.98;;;4.20;99.90;;;;;;5080358;28;20031;-74
2023/03/19 00:53:52;;;;;;;0.20;0.20;;;4.30;99.90;;;;;;5080832;28;20058;-77
2023/03/19 00:56:18;;;;;;;0.20;0.20;;;4.20;99.90;;;;;;5081960;28;20021;-74
2023/03/19 00:58:45;;;;;;;0.20;0.20;;;4.30;99.90;;;;;;5080015;28;20028;-76
2023/03/19 01:01:13;;;;;;;0.20;0.20;;;4.20;99.90;;;;;;5079350;28;20028;-76
2023/03/19 01:03:40;;;;;;;0.20;0.20;;;;;;;;;;5078935;28;20040;-75
2023/03/19 01:06:06;;;;;;;0.20;0.20;;;4.20;99.90;;;;;;5079245;28;20109;-76
2023/03/19 01:08:31;;;;;;;0.20;0.20;;;4.20;99.90;;;;;;5079803;28;20308;-76
2023/03/19 01:11:05;;;;;;;0.20;0.20;;;4.20;99.90;;;;;;5079454;28;20039;-75
2023/03/19 01:13:31;;;;;;;4.50;4.30;;;4.20;99.90;;;;;;5079226;28;20024;-76
2023/03/19 01:15:57;;;;;;;0.20;0.20;;;7.40;99.90;;;;;;5079454;28;20024;-76
2023/03/19 01:18:22;;;;;;;0.20;0.20;;;4.10;99.90;;;;;;5078987;28;20035;-76
2023/03/19 01:20:48;;;;;;;0.20;0.20;;;2.70;99.90;;;;;;5085505;28;20020;-76
2023/03/19 01:23:14;;;;;;;0.20;0.20;;;4.10;99.90;;;;;;5086891;28;20111;-76
2023/03/19 01:25:40;;;;;;;0.88;0.88;;;4.10;99.90;;;;;;5087271;28;20024;-76
2023/03/19 01:28:06;;;;;;;0.10;0.10;;;;;;;;;;5086242;28;20032;-75
2023/03/19 01:30:35;;;;;;;0.20;0.20;;;4.00;99.90;;;;;;5086444;28;20052;-75
2023/03/19 01:33:01;;;;;;;0.20;0.20;;;4.00;99.90;;;;;;5086713;28;20054;-75
2023/03/19 01:35:27;;;;;;;0.20;0.20;;;4.00;99.90;;;;;;5087166;28;20224;-75
2023/03/19 01:37:53;;;;;;;0.20;0.20;;;;;;;;;;5086282;28;20154;-75
2023/03/19 01:40:19;;;;;;;0.20;0.20;;;3.90;99.90;;;;;;5086790;28;20035;-76
2023/03/19 01:43:09;;;;;;;0.68;0.68;;;3.90;99.90;;;;;;5086333;28;20498;-76
2023/03/19 01:45:37;;;;;;;0.20;0.20;;;3.90;99.90;;;;;;5086299;28;20043;-75
2023/03/19 01:48:05;;;;;;;0.20;0.20;;;3.80;99.90;;;;;;5087548;28;20042;-75
2023/03/19 01:50:42;;;;;;;0.13;0.13;;;3.70;99.90;;;;;;5087202;28;20119;-76
2023/03/19 01:53:10;;;;;;;0.20;0.20;;;3.70;99.90;;;;;;5086548;28;20259;-76
2023/03/19 01:55:37;;;;;;;0.20;0.20;;;3.70;99.90;;;;;;5087039;28;20024;-75
2023/03/19 01:58:05;;;;;;;0.10;0.10;;;3.70;99.90;;;;;;5087137;28;20088;-75
2023/03/19 02:00:33;;;;;;;0.20;0.20;;;3.60;99.90;;;;;;5088121;28;20016;-76
2023/03/19 02:03:00;;;;;;;0.20;0.20;;;3.70;99.90;;;;;;5086668;28;20028;-75
2023/03/19 02:05:30;;;;;;;0.20;0.20;;;3.80;99.90;;;;;;5087368;28;20020;-76
2023/03/19 02:08:00;;;;;;;0.20;0.20;;;3.80;99.90;;;;;;5088238;28;20371;-76
2023/03/19 02:10:29;;;;;;;0.20;0.20;;;3.80;99.90;;;;;;5087385;28;20035;-76
2023/03/19 02:12:55;;;;;;;0.25;0.25;;;3.80;99.90;;;;;;5069520;28;20036;-76
2023/03/19 02:15:21;;;;;;;0.20;0.20;;;;;;;;;;5088993;28;20027;-76
2023/03/19 02:17:48;;;;;;;0.20;0.20;;;;;;;;;;5095235;28;20020;-75
2023/03/19 02:20:22;;;;;;;0.20;0.20;;;3.80;99.90;;;;;;5095355;28;20031;-76
2023/03/19 02:22:55;;;;;;;;;;;3.80;99.90;;;;;;5083668;28;20028;-76
2023/03/19 02:25:33;;;;;;;0.20;0.20;;;3.90;99.90;;;;;;5101786;28;20036;-75
2023/03/19 02:28:01;;;;;;;0.20;0.20;;;3.80;99.90;;;;;;5100665;28;20034;-76
2023/03/19 02:30:31;;;;;;;0.10;0.10;;;3.90;99.90;;;;;;5094904;28;20016;-75
2023/03/19 02:32:58;;;;;;;0.20;0.20;;;3.80;99.90;;;;;;5070674;28;20016;-75
2023/03/19 02:35:25;;;;;;;0.20;0.20;;;3.80;99.90;;;;;;5089578;28;20220;-75
2023/03/19 02:37:55;;;;;;;0.32;0.32;;;4.10;99.90;;;;;;5088900;28;20389;-75
2023/03/19 02:40:29;;;;;;;0.20;0.20;;;3.70;99.90;;;;;;5087927;28;20035;-76
2023/03/19 02:42:55;;;;;;;;;;;3.70;99.90;;;;;;5071020;28;20059;-76
2023/03/19 02:45:26;;;;;;;0.10;0.10;;;3.90;99.90;;;;;;5087660;28;19947;-76
2023/03/19 02:47:53;;;;;;;0.20;0.20;;;;;;;;;;5089687;28;20293;-76
2023/03/19 02:50:19;;;;;;;0.30;0.30;;;;;;;;;;5070486;28;20093;-76
2023/03/19 02:52:46;;;;;;;0.20;0.20;;;5.30;99.90;;;;;;5088590;28;20020;-76
2023/03/19 02:55:12;;;;;;;0.20;0.20;;;;;;;;;;5087882;28;20548;-76
2023/03/19 02:57:38;;;;;;;0.20;0.20;;;3.60;99.90;;;;;;5088672;28;20205;-76
2023/03/19 03:00:05;;;;;;;0.20;0.20;;;3.60;99.90;;;;;;5088515;28;20103;-76
2023/03/19 03:02:31;;;;;;;0.20;0.20;;;4.20;99.90;;;;;;5088202;28;20149;-77
2023/03/19 03:04:57;;;;;;;0.20;0.20;;;;;;;;;;5070484;28;20032;-75
2023/03/19 03:07:24;;;;;;;0.10;0.10;;;;;;;;;;5086801;28;20032;-75
2023/03/19 03:09:51;;;;;;;0.20;0.20;;;;;;;;;;5070386;28;20422;-75
2023/03/19 03:12:17;;;;;;;0.20;0.20;;;;;;;;;;5086155;28;20051;-76
2023/03/19 03:14:43;;;;;;;0.20;0.20;;;;;;;;;;5086806;28;20602;-76
2023/03/19 03:17:09;;;;;;;0.20;0.20;;;;;;;;;;5088681;28;20501;-76
2023/03/19 03:19:35;;;;;;;0.10;0.10;;;3.40;99.90;;;;;;5087214;28;20434;-76
2023/03/19 03:22:01;;;;;;;0.20;0.20;;;;;;;;;;5087183;28;20300;-76
2023/03/19 03:24:27;;;;;;;0.17;0.17;;;;;;;;;;5070435;28;20099;-76
2023/03/19 03:26:53;;;;;;;0.10;0.10;;;;;;;;;;5089136;28;20039;-76
2023/03/19 03:29:20;;;;;;;0.20;0.20;;;3.30;99.90;;;;;;5090827;28;20108;-76
2023/03/19 03:31:46;;;;;;;0.20;0.20;;;;;;;;;;5086612;28;20533;-76
2023/03/19 03:34:12;;;;;;;0.20;0.20;;;3.30;99.90;;;;;;5087523;28;20051;-76
2023/03/19 03:36:38;;;;;;;0.20;0.20;;;3.30;99.90;;;;;;5089276;28;20438;-76
2023/03/19 03:39:04;;;;;;;0.20;0.20;;;3.70;99.90;;;;;;5087755;28;20075;-75
2023/03/19 03:41:30;;;;;;;0.20;0.20;;;3.30;99.90;;;;;;5085798;28;20476;-76
2023/03/19 03:43:57;;;;;;;0.20;0.20;;;3.30;99.90;;;;;;5084963;28;20221;-75
2023/03/19 03:46:23;;;;;;;0.20;0.20;;;3.30;99.90;;;;;;5086123;28;20028;-76
2023/03/19 03:48:50;;;;;;;0.20;0.20;;;3.30;99.90;;;;;;5086037;28;20024;-76
2023/03/19 03:51:17;;;;;;;0.20;0.20;;;3.30;99.90;;;;;;5088556;28;20020;-76
2023/03/19 03:53:47;;;;;;;0.20;0.20;;;3.30;99.90;;;;;;5066937;28;20032;-75
2023/03/19 03:56:13;;;;;;;0.20;0.20;;;3.30;99.90;;;;;;5085550;28;20020;-75
2023/03/19 03:58:39;;;;;;;2.28;2.20;;;3.30;99.90;;;;;;5086440;28;20035;-76
2023/03/19 04:01:06;;;;;;;0.20;0.20;;;3.30;99.90;;;;;;5066309;28;20032;-75
2023/03/19 04:03:32;;;;;;;0.20;0.20;;;3.30;99.90;;;;;;5067185;28;20039;-75
2023/03/19 04:05:58;;;;;;;1.83;1.75;;;3.20;99.90;;;;;;5085983;28;20084;-76
2023/03/19 04:08:24;;;;;;;0.45;0.45;;;3.20;99.90;;;;;;5087185;28;20329;-76
2023/03/19 04:10:50;;;;;;;0.20;0.20;;;3.20;99.90;;;;;;5087660;28;20051;-76
2023/03/19 04:13:16;;;;;;;0.20;0.20;;;3.20;99.90;;;;;;5087893;28;20115;-76
2023/03/19 04:15:43;;;;;;;0.20;0.20;;;3.20;99.90;;;;;;5089077;28;20062;-76
2023/03/19 04:18:09;;;;;;;0.20;0.20;;;3.60;99.90;;;;;;5085086;28;20058;-75
2023/03/19 04:20:35;;;;;;;0.10;0.10;;;3.20;99.90;;;;;;5082643;28;20024;-76
2023/03/19 04:23:01;;;;;;;0.20;0.20;;;3.20;99.90;;;;;;5082228;28;20020;-75
2023/03/19 04:25:26;;;;;;;0.20;0.20;;;3.20;99.90;;;;;;5082415;28;20024;-76
2023/03/19 04:27:52;;;;;;;0.20;0.20;;;3.50;99.90;;;;;;5083315;28;20058;-75
2023/03/19 04:30:18;;;;;;;0.20;0.20;;;3.20;99.90;;;;;;5083610;28;20093;-76
2023/03/19 04:32:46;;;;;;;0.20;0.20;;;3.30;99.90;;;;;;5087972;28;20411;-76
2023/03/19 04:35:12;;;;;;;0.20;0.20;;;3.20;99.90;;;;;;5091575;28;20024;-76
2023/03/19 04:37:47;;;;;;;0.10;0.10;;;3.10;99.90;;;;;;5089815;28;20518;-76
2023/03/19 04:40:15;;;;;;;0.20;0.20;;;3.10;99.90;;;;;;5087678;28;20043;-76
2023/03/19 04:42:43;;;;;;;0.20;0.20;;;3.00;99.90;;;;;;5088860;28;20674;-75
2023/03/19 04:45:11;;;;;;;0.40;0.40;;;3.00;99.90;;;;;;5072584;28;20411;-76
2023/03/19 04:47:37;;;;;;;0.10;0.10;;;2.90;99.90;;;;;;5100552;27;20046;-76
2023/03/19 04:50:05;;;;;;;0.20;0.20;;;2.20;99.90;;;;;;5103133;28;20048;-75
2023/03/19 04:52:32;;;;;;;0.20;0.20;;;2.80;99.90;;;;;;5072565;28;20495;-76
2023/03/19 04:54:59;;;;;;;0.10;0.10;;;2.80;99.90;;;;;;5092099;28;20020;-75
2023/03/19 04:57:24;;;;;;;0.20;0.20;;;2.70;99.90;;;;;;5092171;28;20028;-75
2023/03/19 04:59:50;;;;;;;0.17;0.17;;;;;;;;;;5091582;28;20031;-76
2023/03/19 05:02:17;;;;;;;0.20;0.20;;;2.80;99.90;;;;;;5090799;28;20030;-75
2023/03/19 05:04:43;;;;;;;0.20;0.20;;;2.70;99.90;;;;;;5089873;28;20486;-75
2023/03/19 05:07:08;;;;;;;0.22;0.22;;;2.80;99.90;;;;;;5091799;28;20480;-75
2023/03/19 05:09:34;;;;;;;0.20;0.20;;;2.80;99.90;;;;;;5097508;28;20080;-76
2023/03/19 05:12:00;;;;;;;0.10;0.10;;;;;;;;;;5073340;28;20132;-76
2023/03/19 05:14:27;;;;;;;0.17;0.17;;;2.80;99.90;;;;;;5092769;28;20404;-76
2023/03/19 05:16:53;;;;;;;0.20;0.20;;;2.80;99.90;;;;;;5075364;28;20581;-76
2023/03/19 05:19:19;;;;;;;0.20;0.20;;;;;;;;;;5066292;28;20309;-75
2023/03/19 05:21:46;;;;;;;0.20;0.20;;;;;;;;;;5085002;28;20031;-75
2023/03/19 05:24:12;;;;;;;0.20;0.20;;;;;;;;;;5086386;28;20028;-76
2023/03/19 05:26:38;;;;;;;9.02;8.18;;;2.80;99.90;;;;;;5085451;28;20028;-75
2023/03/19 05:29:04;;;;;;;0.20;0.20;;;2.70;99.90;;;;;;5084049;28;20635;-76
2023/03/19 05:31:30;;;;;;;0.20;0.20;;;;;;;;;;5084107;28;20093;-76
2023/03/19 05:33:56;;;;;;;0.20;0.20;;;;;;;;;;5083448;28;20032;-76
2023/03/19 05:36:22;;;;;;;0.40;0.40;;;2.70;99.90;;;;;;5083681;28;20025;-76
2023/03/19 05:38:48;;;;;;;0.10;0.10;;;2.80;99.90;;;;;;5080940;28;20321;-76
2023/03/19 05:41:16;;;;;;;0.20;0.20;;;2.80;99.90;;;;;;5082952;28;20109;-75
2023/03/19 05:43:42;;;;;;;0.20;0.20;;;2.80;99.90;;;;;;5082302;28;20042;-77
2023/03/19 05:46:08;;;;;;;0.20;0.20;;;;;;;;;;5085142;28;20028;-76
2023/03/19 05:48:33;;;;;;;0.70;0.70;;;2.90;99.90;;;;;;5084963;28;20471;-76
2023/03/19 05:50:59;;;;;;;0.20;0.20;;;3.00;99.90;;;;;;5089317;28;20039;-76
2023/03/19 05:53:25;;;;;;;0.20;0.20;;;3.00;99.90;;;;;;5066360;28;20043;-76
2023/03/19 05:55:50;;;;;;;0.20;0.20;;;3.00;99.90;;;;;;5080930;28;20467;-76
2023/03/19 05:58:16;;;;;;;0.20;0.20;;;3.10;99.90;;;;;;5082986;28;20623;-75
2023/03/19 06:00:43;;;;;;;14.40;13.88;;;3.10;99.90;;;;;;5064985;28;20028;-76
2023/03/19 06:03:09;;;;;;;0.20;0.20;;;3.50;99.90;;;;;;5081903;28;20276;-76
2023/03/19 06:05:35;;;;;;;0.20;0.20;;;3.30;99.90;;;;;;5082126;28;20024;-76
2023/03/19 06:08:01;;;;;;;0.30;0.30;;;3.60;99.90;;;;;;5085120;28;20024;-76
2023/03/19 06:10:27;;;;;;;0.75;0.75;;;3.50;99.90;;;;;;5087596;28;20091;-75
2023/03/19 06:12:53;;;;;;;2.92;2.83;;;3.60;99.90;;;;;;5086407;28;20067;-76
2023/03/19 06:15:19;;;;;;;13.32;12.77;;;3.70;99.90;;;;;;5085560;28;20024;-76
2023/03/19 06:17:44;;;;;;;0.20;0.20;;;3.70;99.90;;;;;;5088067;28;20725;-76
2023/03/19 06:20:11;;;;;;;0.20;0.20;;;4.40;99.90;;;;;;5092249;28;20043;-76
2023/03/19 06:22:40;;;;;;;0.20;0.20;;;3.80;99.90;;;;;;5091602;28;20049;-76
2023/03/19 06:25:08;;;;;;;0.20;0.20;;;3.90;99.90;;;;;;5090978;28;20024;-76
2023/03/19 06:27:33;;;;;;;0.20;0.20;;;3.90;99.90;;;;;;5088365;28;20017;-76
2023/03/19 06:30:04;;;;;;;0.22;0.22;;;2.80;99.90;;;;;;5090578;28;20093;-76
2023/03/19 06:32:31;;;;;;;3.63;3.53;;;;;;;;;;5066566;28;20041;-76
2023/03/19 06:34:57;;;;;;;0.15;0.15;;;4.50;99.90;;;;;;5072345;28;20062;-76
2023/03/19 06:37:27;;;;;;;0.55;0.55;;;4.60;99.90;;;;;;5092477;28;20040;-76
2023/03/19 06:39:53;;;;;;;0.20;0.20;;;4.90;99.90;;;;;;5073575;28;20427;-76
2023/03/19 06:42:21;;;;;;;0.10;0.10;;;5.20;99.90;;;;;;5073143;28;20024;-76
2023/03/19 06:44:47;;;;;;;21.17;19.90;;;5.10;99.90;;;;;;5090227;28;20020;-76
2023/03/19 06:47:18;;;;;;;0.20;0.20;;;5.00;99.90;;;;;;5090566;28;20084;-76
2023/03/19 06:49:47;;;;;;;0.10;0.10;;;5.20;99.90;;;;;;5092483;28;20020;-76
2023/03/19 06:52:12;;;;;;;6.22;5.88;;;5.40;99.90;;;;;;5092331;28;20020;-76
2023/03/19 06:54:40;;;;;;;0.10;0.10;;;5.50;99.90;;;;;;5090245;28;20672;-76
2023/03/19 06:57:08;;;;;;;0.20;0.20;;;5.60;99.90;;;;;;5094654;28;20020;-76
2023/03/19 06:59:37;;;;;;;0.10;0.10;;;5.80;99.90;;;;;;5101007;28;20292;-76
2023/03/19 07:02:03;;;;;;;0.10;0.10;;;5.90;99.90;;;;;;5096159;28;20024;-75
2023/03/19 07:04:29;;;;;;;3.50;3.40;;;5.80;99.90;;;;;;5105226;28;20142;-76
2023/03/19 07:06:55;;;;;;;0.20;0.20;;;6.20;99.90;;;;;;5108302;28;20038;-76
2023/03/19 07:09:21;;;;;;;0.10;0.10;;;6.30;99.90;;;;;;5090206;28;20028;-76
2023/03/19 07:11:54;;;;;;;0.10;0.10;;;6.50;99.90;;;;;;5095080;28;20036;-77
2023/03/19 07:14:22;;;;;;;0.10;0.10;;;6.60;99.90;;;;;;5104262;28;20055;-77
2023/03/19 07:16:49;;;;;;;0.32;0.32;;;6.70;99.90;;;;;;5111744;28;20055;-76
2023/03/19 07:19:15;;;;;;;0.10;0.10;;;6.90;99.90;;;;;;5112087;28;20016;-77
2023/03/19 07:21:41;;;;;;;0.40;0.40;;;7.00;99.90;;;;;;5110647;28;20020;-76
2023/03/19 07:24:08;;;;;;;0.00;0.00;;;7.10;99.90;;;;;;5112783;28;20020;-77
2023/03/19 07:26:38;;;;;;;0.10;0.10;;;7.20;99.90;;;;;;5093859;28;20028;-76
2023/03/19 07:29:05;;;;;;;0.00;0.00;;;7.40;99.90;;;;;;5094027;28;20081;-76
2023/03/19 07:31:46;;;;;;;0.00;0.00;;;7.60;99.90;;;;;;5096809;28;20276;-76
2023/03/19 07:34:12;;;;;;;0.10;0.10;;;;;;;;;;5036041;28;20044;-77
2023/03/19 07:36:38;;;;;;;3.35;3.20;;;7.90;99.90;;;;;;5085169;28;20028;-76
2023/03/19 07:39:06;;;;;;;0.00;0.00;;;8.00;99.90;;;;;;5085244;28;20227;-76
2023/03/19 07:41:32;;;;;;;7.43;6.70;;;8.10;99.90;;;;;;5086935;28;20070;-76
2023/03/19 07:43:57;;;;;;;0.00;0.00;;;8.50;98.50;;;;;;5084351;28;20483;-77
2023/03/19 07:46:23;;;;;;;0.10;0.10;;;8.60;99.00;;;;;;5064317;28;20036;-76
2023/03/19 07:48:50;;;;;;;0.05;0.05;;;8.80;96.80;;;;;;5068886;28;20034;-76
2023/03/19 07:51:16;;;;;;;0.00;0.00;;;9.90;95.10;;;;;;5087847;28;20042;-76
2023/03/19 07:53:42;;;;;;;0.00;0.00;;;9.00;96.30;;;;;;5069957;28;20408;-76
2023/03/19 07:56:08;;;;;;;0.08;0.08;;;9.10;93.80;;;;;;5087591;28;20024;-76
2023/03/19 07:58:33;;;;;;;0.10;0.10;;;9.20;93.10;;;;;;5088831;28;20384;-77
2023/03/19 08:01:00;;;;;;;8.18;6.97;;;;;;;;;;5086762;28;20228;-77
2023/03/19 08:03:25;;;;;;;0.00;0.00;;;9.60;88.70;;;;;;5090967;28;20483;-76
2023/03/19 08:05:51;;;;;;;0.05;0.05;;;9.70;87.40;;;;;;5097812;28;20081;-76
2023/03/19 08:08:18;;;;;;;0.05;0.05;;;9.80;87.40;;;;;;5079488;28;20058;-76
2023/03/19 08:10:58;;;;;;;0.00;0.00;;;10.00;86.50;;;;;;5097969;28;20028;-77
2023/03/19 08:13:24;;;;;;;0.13;0.13;;;10.10;84.10;;;;;;5098798;28;20085;-76
2023/03/19 08:15:51;;;;;;;0.00;0.00;;;10.20;84.50;;;;;;5102973;28;20012;-77
2023/03/19 08:18:16;;;;;;;0.00;0.00;;;10.40;82.60;;;;;;5078987;28;20020;-76
2023/03/19 08:20:45;;;;;;;0.47;0.47;;;10.50;81.70;;;;;;5092771;28;20030;-76
2023/03/19 08:23:15;;;;;;;0.00;0.00;;;10.70;81.40;;;;;;5092428;28;20024;-77
2023/03/19 08:25:45;;;;;;;0.10;0.10;;;10.80;80.20;;;;;;5087359;28;20530;-76
2023/03/19 08:28:11;;;;;;;0.40;0.40;;;11.20;82.40;;;;;;5085496;28;20237;-77
2023/03/19 08:30:39;;;;;;;0.00;0.00;;;10.90;80.60;;;;;;5087665;28;20054;-88
2023/03/19 08:33:05;;;;;;;0.03;0.03;;;10.90;79.70;;;;;;5093119;28;20059;-77
2023/03/19 08:35:31;;;;;;;0.05;0.05;;;11.10;79.40;;;;;;5091391;28;20226;-76
2023/03/19 08:37:59;;;;;;;0.47;0.47;;;11.30;79.60;;;;;;5089260;28;20081;-77
2023/03/19 08:40:25;;;;;;;0.10;0.10;;;11.40;78.30;;;;;;5093717;28;20118;-76
2023/03/19 08:42:53;;;;;;;0.10;0.10;;;11.60;78.80;;;;;;5088316;28;20034;-79
2023/03/19 08:45:19;;;;;;;0.10;0.10;;;11.60;76.60;;;;;;5080717;28;20328;-76
2023/03/19 08:47:46;;;;;;;0.10;0.10;;;11.80;77.80;;;;;;5064354;28;20494;-77
2023/03/19 08:50:12;;;;;;;8.85;8.25;;;12.00;75.20;;;;;;5081082;28;20024;-77
2023/03/19 08:52:38;;;;;;;0.10;0.10;;;12.10;74.10;;;;;;5083683;28;20509;-77
2023/03/19 08:55:04;;;;;;;0.10;0.10;;;12.30;73.80;;;;;;5080297;28;20028;-81
2023/03/19 08:57:31;;;;;;;0.10;0.10;;;12.40;72.40;;;;;;5079657;28;20016;-79
2023/03/19 08:59:57;;;;;;;0.10;0.10;;;12.60;72.40;;;;;;5061098;28;20070;-77
2023/03/19 09:02:23;;;;;;;0.10;0.10;;;13.60;72.30;;;;;;5061343;28;20055;-83
2023/03/19 09:04:55;;;;;;;0.13;0.13;;;13.10;71.00;;;;;;5063322;28;20028;-79
2023/03/19 09:07:21;;;;;;;3.40;3.13;;;13.10;70.80;;;;;;5080440;28;20554;-77
2023/03/19 09:09:47;;;;;;;5.55;5.25;;;13.20;71.80;;;;;;5079834;28;20058;-76
2023/03/19 09:12:18;;;;;;;0.10;0.10;;;13.60;70.00;;;;;;5078783;28;20313;-81
2023/03/19 09:14:44;;;;;;;0.30;0.30;;;14.00;67.90;;;;;;5060194;28;20059;-77
2023/03/19 09:17:12;;;;;;;0.10;0.10;;;;;;;;;;5078395;28;20487;-75
2023/03/19 09:19:38;;;;;;;0.43;0.43;;;14.10;66.80;;;;;;5058708;28;20016;-80
2023/03/19 09:22:11;;;;;;;0.20;0.20;;;14.90;69.50;;;;;;5077751;28;20012;-75
2023/03/19 09:24:39;;;;;;;0.20;0.20;;;14.40;68.90;;;;;;5058930;28;20024;-74
2023/03/19 09:27:05;;;;;;;0.13;0.13;;;14.50;70.70;;;;;;5077063;28;20640;-75
2023/03/19 09:29:31;;;;;;;0.20;0.20;;;14.80;68.80;;;;;;5059270;28;20278;-77
2023/03/19 09:31:57;;;;;;;1.17;1.17;;;;;;;;;;5077333;28;20538;-76
2023/03/19 09:34:23;;;;;;;1.20;1.10;;;14.90;66.40;;;;;;5077771;28;20132;-75
2023/03/19 09:36:49;;;;;;;0.20;0.20;;;13.70;66.20;;;;;;5077784;28;20454;-79
2023/03/19 09:39:15;;;;;;;0.10;0.10;;;15.40;64.40;;;;;;5077881;28;20077;-75
2023/03/19 09:42:17;;;;;;;0.10;0.10;;;15.80;64.50;;;;;;5081274;28;20328;-78
2023/03/19 09:44:45;;;;;;;0.85;0.85;;;15.70;63.20;;;;;;5039513;28;20386;-78
2023/03/19 09:47:29;;;;;;;0.20;0.20;;;15.90;63.30;;;;;;5039155;28;20033;-83
2023/03/19 09:49:58;;;;;;;0.13;0.13;;;15.80;61.50;;;;;;5022598;28;20217;-81
2023/03/19 09:52:30;;;;;;;0.10;0.10;;;16.30;63.50;;;;;;5039929;28;20341;-80
2023/03/19 09:55:03;;;;;;;2.13;2.03;;;16.30;61.70;;;;;;5039356;28;20094;-88
2023/03/19 09:57:28;;;;;;;1.20;1.20;;;16.20;62.20;;;;;;5040188;28;20138;-81
2023/03/19 09:59:55;;;;;;;0.10;0.10;;;16.50;62.70;;;;;;5039961;28;20547;-77
2023/03/19 10:02:21;;;;;;;0.10;0.10;;;16.50;61.60;;;;;;5038439;28;20068;-76
2023/03/19 10:05:15;;;;;;;1.13;1.10;;;16.70;61.40;;;;;;5024221;28;20763;-76
2023/03/19 10:08:23;;;;;;;3.25;2.55;;;16.80;59.70;;;;;;4980495;28;20522;-76
2023/03/19 10:11:15;;;;;;;0.75;0.60;;;16.90;59.60;;;;;;4921284;29;20036;-76
2023/03/19 10:13:41;;;;;;;0.10;0.10;;;16.80;60.70;;;;;;4899590;29;20550;-76
2023/03/19 10:16:17;;;;;;;0.45;0.45;;;17.30;61.60;;;;;;4920991;29;20027;-81
2023/03/19 10:18:48;;;;;;;0.63;0.63;;;17.20;60.00;;;;;;4921117;29;20050;-74
2023/03/19 10:21:43;;;;;;;0.20;0.20;;;17.20;60.00;;;;;;4921462;29;20043;-84
2023/03/19 10:24:21;;;;;;;0.40;0.40;;;17.40;59.40;;;;;;4923006;29;20057;-77
2023/03/19 10:26:47;;;;;;;0.20;0.20;;;17.60;59.00;;;;;;4923151;29;20606;-83
2023/03/19 10:29:21;;;;;;;0.10;0.10;;;17.70;59.90;;;;;;4923243;29;20128;-80
2023/03/19 10:32:08;;;;;;;0.22;0.22;;;17.80;59.20;;;;;;4922599;29;20102;-77
2023/03/19 10:34:36;;;;;;;0.10;0.10;;;17.90;58.80;;;;;;4922548;29;20705;-83
2023/03/19 10:37:33;;;;;;;0.30;0.30;;;18.00;58.70;;;;;;4920984;29;20050;-77
2023/03/19 10:40:00;;;;;;;0.75;0.75;;;18.10;57.90;;;;;;4920463;29;20610;-75
2023/03/19 10:43:00;;;;;;;0.10;0.10;;;18.30;56.90;;;;;;4904526;29;20353;-80
2023/03/19 10:45:27;;;;;;;0.30;0.30;;;18.30;56.80;;;;;;5062505;28;20639;-75
2023/03/19 10:47:55;;;;;;;0.30;0.30;;;18.50;57.70;;;;;;5080335;28;20236;-78
2023/03/19 10:50:41;;;;;;;0.10;0.10;;;18.60;56.60;;;;;;5080436;28;20054;-76
2023/03/19 10:53:29;;;;;;;0.50;0.50;;;19.10;57.90;;;;;;5035721;28;20064;-76
2023/03/19 10:55:58;;;;;;;0.10;0.10;;;19.20;56.00;;;;;;5036978;28;20276;-76
2023/03/19 10:58:27;;;;;;;0.38;0.38;;;18.90;56.40;;;;;;5037231;28;20265;-77
2023/03/19 11:00:57;;;;;;;0.10;0.10;;;18.90;57.10;;;;;;5036229;28;20286;-76
2023/03/19 11:03:49;;;;;;;0.10;0.10;;;19.40;57.10;;;;;;5036646;28;20558;-75
2023/03/19 11:06:28;;;;;;;0.10;0.10;;;19.50;57.50;;;;;;5037104;28;20333;-76
2023/03/19 11:09:01;;;;;;;0.40;0.40;;;19.90;55.40;;;;;;5036732;28;20045;-76
2023/03/19 11:11:46;;;;;;;0.22;0.22;;;20.20;54.50;;;;;;5036854;28;20225;-76
2023/03/19 11:14:23;;;;;;;0.10;0.10;;;20.30;52.60;;;;;;5036581;28;20028;-75
2023/03/19 11:17:05;;;;;;;0.10;0.10;;;20.30;52.30;;;;;;5036225;28;20383;-79
2023/03/19 11:19:38;;;;;;;0.40;0.40;;;20.30;52.10;;;;;;5019821;28;20562;-76
2023/03/19 11:22:06;;;;;;;0.10;0.10;;;21.00;52.70;;;;;;5019586;28;20021;-75
2023/03/19 11:24:37;;;;;;;0.10;0.10;;;22.20;53.00;;;;;;5036504;28;20067;-80
2023/03/19 11:27:05;;;;;;;0.10;0.10;;;21.00;52.40;;;;;;5036631;28;20033;-75
2023/03/19 11:29:32;;;;;;;0.22;0.22;;;21.10;52.40;;;;;;5044331;28;20028;-75
2023/03/19 11:32:30;;;;;;;0.10;0.10;;;20.50;51.30;;;;;;5079062;28;20024;-74
2023/03/19 11:34:57;;;;;;;0.77;0.77;;;20.60;50.00;;;;;;5079479;28;20043;-74
2023/03/19 11:37:45;;;;;;;0.10;0.10;;;20.90;50.00;;;;;;5079278;28;20131;-76
2023/03/19 11:40:33;;;;;;;0.10;0.10;;;20.80;50.00;;;;;;5079855;28;20510;-81
2023/03/19 11:43:05;;;;;;;0.52;0.52;;;21.00;49.70;;;;;;5080931;28;20154;-75
2023/03/19 11:45:37;;;;;;;3.25;3.13;;;21.30;49.80;;;;;;5079955;28;20020;-77
2023/03/19 11:48:29;;;;;;;0.10;0.10;;;21.40;48.30;;;;;;5079320;28;20031;-77
2023/03/19 11:51:12;;;;;;;0.95;0.95;;;21.50;48.60;;;;;;5079261;28;20023;-76
2023/03/19 11:53:43;;;;;;;0.00;0.00;;;21.60;48.20;;;;;;5063110;28;20040;-81
2023/03/19 11:56:34;;;;;;;0.10;0.10;;;21.70;46.60;;;;;;5080404;28;20115;-89
2023/03/19 11:59:12;;;;;;;0.10;0.10;;;22.00;47.80;;;;;;5081080;28;20235;-85
2023/03/19 12:02:16;;;;;;;2.40;2.30;;;22.10;48.70;;;;;;5080913;28;20107;-79
2023/03/19 12:05:00;;;;;;;;;;;22.30;45.00;;;;;;5081980;28;20059;-84
2023/03/19 12:07:41;;;;;;;0.10;0.10;;;22.50;45.40;;;;;;5079961;28;20196;-75
2023/03/19 12:10:24;;;;;;;0.10;0.10;;;24.40;45.70;;;;;;5079089;28;20047;-81
2023/03/19 12:12:50;;;;;;;;;;;22.60;43.30;;;;;;5061313;28;20459;-75
2023/03/19 12:15:45;;;;;;;0.10;0.10;;;22.70;43.10;;;;;;5079451;28;20462;-75
2023/03/19 12:18:17;;;;;;;0.10;0.10;;;22.90;42.80;;;;;;5079703;28;20051;-78
2023/03/19 12:21:03;;;;;;;0.10;0.10;;;22.90;42.30;;;;;;5079587;28;20028;-76
2023/03/19 12:23:51;;;;;;;0.10;0.10;;;23.10;42.00;;;;;;5060315;28;20158;-83
2023/03/19 12:27:00;;;;;;;0.22;0.22;;;23.00;41.80;;;;;;5078130;28;20045;-79
2023/03/19 12:29:38;;;;;;;0.20;0.20;;;22.90;42.20;;;;;;5060742;28;20024;-75
2023/03/19 12:32:36;;;;;;;1.25;1.17;;;23.30;42.30;;;;;;5059459;28;20105;-76
2023/03/19 12:35:15;;;;;;;0.10;0.10;;;23.60;42.30;;;;;;5034952;28;20124;-76
2023/03/19 12:38:02;;;;;;;0.45;0.45;;;23.90;43.40;;;;;;5035833;28;20087;-85
2023/03/19 12:40:36;;;;;;;0.05;0.05;;;24.10;42.80;;;;;;5036821;28;20516;-80
2023/03/19 12:43:23;;;;;;;0.10;0.10;;;24.20;42.20;;;;;;5036569;28;20033;-79
2023/03/19 12:46:01;;;;;;;0.32;0.32;;;24.20;41.90;;;;;;5036142;28;20052;-76
2023/03/19 12:48:40;;;;;;;0.10;0.10;;;23.80;41.70;;;;;;5036878;28;20033;-81
2023/03/19 12:51:10;;;;;;;0.10;0.10;;;23.80;40.90;;;;;;5037007;28;20579;-79
2023/03/19 12:54:05;;;;;;;0.10;0.10;;;23.60;41.40;;;;;;5020443;28;20036;-87
2023/03/19 12:57:02;;;;;;;0.40;0.40;;;23.50;41.10;;;;;;5034998;28;20032;-86
2023/03/19 13:00:08;;;;;;;0.10;0.10;;;23.90;41.70;;;;;;5037326;28;20304;-81
2023/03/19 13:02:33;;;;;;;0.10;0.10;;;24.10;41.90;;;;;;4977778;28;20324;-81
2023/03/19 13:05:28;;;;;;;0.13;0.13;;;24.00;41.40;;;;;;4960954;28;20077;-80
2023/03/19 13:08:27;;;;;;;0.60;0.60;;;23.90;41.70;;;;;;4960221;28;20299;-81
2023/03/19 13:10:58;;;;;;;0.13;0.13;;;24.10;41.00;;;;;;4982144;28;20041;-78
2023/03/19 13:13:26;;;;;;;0.10;0.10;;;24.00;41.40;;;;;;4995768;28;20054;-78
2023/03/19 13:15:57;;;;;;;0.30;0.30;;;24.30;41.60;;;;;;4995312;28;20026;-81
2023/03/19 13:18:38;;;;;;;0.17;0.17;;;24.60;41.50;;;;;;4979555;28;20374;-77